This is the latest recevied weather packets stored in our database for station/object OE-11331. If no packets are shown the sender has not sent any weather packets the latest 10 day(s).
| Time | Temp. | Humidity | Pressure | Rain* | Wind** | Luminosity | Snow |
|---|---|---|---|---|---|---|---|
| 1787875906 | 19.44° C | 88% | 1016 hPa | 0 mm | - | 0 W/m² | - |
| 1787875533 | 19.44° C | 87% | 1016.1 hPa | 0 mm | - | 0 W/m² | - |
| 1787874934 | 19.44° C | 87% | 1016.2 hPa | 0 mm | - | 0 W/m² | - |
| 1787874106 | 20° C | 86% | 1016.1 hPa | 0 mm | - | 0 W/m² | - |
| 1787873734 | 20° C | 86% | 1016.1 hPa | 0 mm | - | 0 W/m² | - |
| 1787873133 | 20° C | 86% | 1016.2 hPa | 0 mm | - | 0 W/m² | - |
| 1787872534 | 20° C | 86% | 1016.4 hPa | 0 mm | - | 0 W/m² | - |
| 1787871933 | 20° C | 86% | 1016.2 hPa | 0 mm | - | 0 W/m² | - |
| 1787870507 | 20.56° C | 85% | 1016.2 hPa | 0 mm | - | 0 W/m² | - |
| 1787870134 | 20.56° C | 85% | 1016.3 hPa | 0 mm | - | 0 W/m² | - |
| 1787869534 | 21.11° C | 83% | 1016.2 hPa | 0 mm | - | 0 W/m² | - |
| 1787868707 | 21.11° C | 83% | 1016.4 hPa | 0 mm | - | 0 W/m² | - |
| 1787868333 | 21.11° C | 82% | 1016.2 hPa | 0 mm | - | 0 W/m² | - |
| 1787867734 | 21.11° C | 82% | 1016.1 hPa | 0 mm | - | 0 W/m² | - |
| 1787866907 | 21.67° C | 81% | 1016.2 hPa | 0 mm | - | 0 W/m² | - |
| 1787866533 | 21.67° C | 81% | 1016.1 hPa | 0 mm | - | 0 W/m² | - |
| 1787865934 | 21.67° C | 81% | 1016.1 hPa | 0 mm | - | 0 W/m² | - |
| 1787865107 | 21.67° C | 80% | 1016.1 hPa | 0 mm | - | 0 W/m² | - |
| 1787864733 | 21.67° C | 79% | 1016 hPa | 0 mm | - | 0 W/m² | - |
| 1787864133 | 21.67° C | 79% | 1016 hPa | 0 mm | - | 0 W/m² | - |
| 1787863307 | 21.67° C | 80% | 1016 hPa | 0 mm | - | 0 W/m² | - |
| 1787862934 | 21.67° C | 80% | 1016 hPa | 0 mm | - | 0 W/m² | - |
| 1787862334 | 21.11° C | 80% | 1016.1 hPa | 0 mm | - | 0 W/m² | - |
| 1787861507 | 21.11° C | 80% | 1016.1 hPa | 0 mm | - | 0 W/m² | - |
| 1787861134 | 22.78° C | 74% | 1015.6 hPa | 0 mm | - | 0 W/m² | - |
* Rain latest hour (hover to see other rain measurements)
** Current wind speed in m/s (hover to see current wind gust speed)